createdAt,value
2023-10-27T00:01:43.073Z,53.10
2023-10-27T00:04:11.557Z,53.09
2023-10-27T00:06:38.733Z,53.34
2023-10-27T00:09:06.106Z,52.98
2023-10-27T00:11:33.173Z,53.12
2023-10-27T00:14:00.250Z,52.51
2023-10-27T00:16:28.750Z,52.83
2023-10-27T00:18:55.934Z,53.04
2023-10-27T00:21:23.129Z,52.86
2023-10-27T00:23:50.229Z,53.01
2023-10-27T00:26:17.345Z,52.83
2023-10-27T00:28:44.428Z,52.64
2023-10-27T00:31:11.552Z,52.87
2023-10-27T00:33:40.091Z,52.72
2023-10-27T00:36:07.763Z,52.38
2023-10-27T00:38:34.872Z,52.66
2023-10-27T00:41:02.038Z,52.84
2023-10-27T00:43:29.155Z,52.67
2023-10-27T00:45:56.369Z,53.00
2023-10-27T00:48:23.552Z,52.66
2023-10-27T00:50:52.394Z,52.82
2023-10-27T00:53:21.090Z,53.12
2023-10-27T00:55:49.927Z,60.34
2023-10-27T00:58:17.246Z,59.21
2023-10-27T01:00:44.744Z,56.11
2023-10-27T01:03:11.889Z,55.08
2023-10-27T01:05:38.925Z,54.32
2023-10-27T01:08:07.902Z,54.74
2023-10-27T01:10:35.193Z,54.51
2023-10-27T01:13:02.329Z,50.33
2023-10-27T01:15:29.471Z,52.08
2023-10-27T01:17:56.612Z,52.87
2023-10-27T01:20:23.856Z,53.66
2023-10-27T01:22:52.484Z,52.79
2023-10-27T01:25:19.663Z,53.10
2023-10-27T01:27:46.852Z,53.42
2023-10-27T01:30:14.270Z,53.66
2023-10-27T01:32:41.454Z,53.59
2023-10-27T01:35:09.589Z,54.23
2023-10-27T01:37:36.825Z,54.62
2023-10-27T01:40:06.237Z,54.33
2023-10-27T01:42:33.480Z,54.41
2023-10-27T01:45:02.105Z,54.41
2023-10-27T01:47:29.343Z,54.96
2023-10-27T01:49:56.454Z,54.52
2023-10-27T01:52:23.652Z,54.27
2023-10-27T01:54:50.939Z,54.84
2023-10-27T01:57:19.442Z,54.91
2023-10-27T01:59:46.585Z,52.70
2023-10-27T02:02:13.745Z,53.41
2023-10-27T02:04:40.943Z,54.87
2023-10-27T02:07:08.763Z,53.82
2023-10-27T02:09:35.937Z,53.03
2023-10-27T02:12:03.155Z,54.56
2023-10-27T02:14:31.616Z,52.73
2023-10-27T02:16:58.701Z,54.06
2023-10-27T02:19:25.878Z,50.89
2023-10-27T02:21:53.253Z,50.74
2023-10-27T02:24:20.355Z,53.90
2023-10-27T02:26:47.471Z,53.95
2023-10-27T02:29:14.514Z,54.84
2023-10-27T02:31:43.003Z,54.32
2023-10-27T02:34:10.159Z,54.41
2023-10-27T02:36:37.304Z,53.65
2023-10-27T02:39:04.548Z,53.13
2023-10-27T02:41:31.688Z,52.67
2023-10-27T02:43:58.816Z,53.81
2023-10-27T02:46:26.007Z,53.21
2023-10-27T02:48:54.563Z,53.95
2023-10-27T02:51:23.186Z,52.57
2023-10-27T02:53:50.304Z,52.86
2023-10-27T02:56:17.583Z,51.56
2023-10-27T02:58:44.644Z,52.22
2023-10-27T03:04:18.713Z,52.21
2023-10-27T03:06:45.834Z,54.14
2023-10-27T03:09:12.914Z,53.61
2023-10-27T03:11:40.011Z,53.29
2023-10-27T03:14:07.093Z,53.17
2023-10-27T03:16:34.230Z,53.51
2023-10-27T03:19:01.447Z,53.53
2023-10-27T03:21:30.133Z,52.22
2023-10-27T03:23:57.178Z,52.38
2023-10-27T03:26:24.268Z,52.59
2023-10-27T03:28:51.347Z,53.60
2023-10-27T03:31:18.496Z,52.87
2023-10-27T03:33:45.588Z,52.02
2023-10-27T03:36:12.633Z,51.48
2023-10-27T03:38:41.162Z,52.02
2023-10-27T03:41:08.315Z,51.94
2023-10-27T03:43:35.636Z,51.36
2023-10-27T03:46:02.897Z,53.89
2023-10-27T03:48:30.374Z,52.61
2023-10-27T03:50:57.474Z,53.20
2023-10-27T03:53:24.536Z,49.60
2023-10-27T03:55:55.859Z,49.38
2023-10-27T03:58:27.470Z,49.91
2023-10-27T04:01:00.646Z,52.53
2023-10-27T04:03:27.772Z,51.88
2023-10-27T04:05:54.967Z,49.71
2023-10-27T04:08:22.001Z,50.17
2023-10-27T04:10:49.131Z,50.94
2023-10-27T04:13:17.556Z,51.27
2023-10-27T04:15:44.682Z,51.86
2023-10-27T04:18:11.939Z,53.40
2023-10-27T04:20:39.065Z,50.83
2023-10-27T04:23:06.147Z,50.79
2023-10-27T04:25:33.220Z,51.90
2023-10-27T04:28:00.370Z,51.52
2023-10-27T04:30:28.942Z,51.95
2023-10-27T04:32:56.059Z,50.39
2023-10-27T04:35:23.203Z,51.85
2023-10-27T04:37:50.302Z,51.93
2023-10-27T04:40:17.785Z,50.45
2023-10-27T04:42:44.867Z,51.75
2023-10-27T04:45:11.946Z,51.47
2023-10-27T04:47:40.544Z,50.75
2023-10-27T04:50:09.182Z,50.34
2023-10-27T04:52:36.419Z,49.53
2023-10-27T04:55:03.823Z,49.94
2023-10-27T04:57:31.028Z,50.31
2023-10-27T04:59:58.122Z,51.32
2023-10-27T05:02:25.382Z,50.26
2023-10-27T05:04:53.962Z,48.63
2023-10-27T05:07:21.151Z,49.47
2023-10-27T05:09:48.321Z,49.11
2023-10-27T05:12:15.463Z,49.04
2023-10-27T05:14:42.566Z,48.83
2023-10-27T05:17:09.729Z,49.41
2023-10-27T05:19:37.015Z,48.84
2023-10-27T05:22:05.752Z,49.43
2023-10-27T05:24:33.161Z,49.93
2023-10-27T05:27:00.282Z,48.92
2023-10-27T05:29:27.369Z,50.49
2023-10-27T05:31:54.466Z,49.60
2023-10-27T05:34:21.623Z,48.80
2023-10-27T05:36:48.762Z,49.62
2023-10-27T05:39:17.350Z,48.77
2023-10-27T05:41:45.662Z,47.43
2023-10-27T05:44:12.729Z,49.03
2023-10-27T05:46:39.892Z,50.52
2023-10-27T05:49:07.083Z,49.96
2023-10-27T05:51:34.785Z,49.64
2023-10-27T05:54:02.000Z,49.63
2023-10-27T05:56:30.600Z,50.60
2023-10-27T05:58:57.719Z,48.74
2023-10-27T06:01:24.897Z,49.71
2023-10-27T06:03:52.051Z,49.84
2023-10-27T06:06:19.131Z,50.49
2023-10-27T06:08:46.213Z,50.14
2023-10-27T06:11:13.312Z,48.41
2023-10-27T06:13:41.811Z,50.01
2023-10-27T06:16:08.938Z,49.33
2023-10-27T06:18:36.318Z,49.91
2023-10-27T06:21:03.628Z,50.68
2023-10-27T06:23:30.748Z,50.37
2023-10-27T06:25:57.854Z,50.22
2023-10-27T06:28:25.041Z,48.77
2023-10-27T06:30:53.630Z,49.93
2023-10-27T06:33:20.730Z,48.17
2023-10-27T06:35:48.227Z,48.26
2023-10-27T06:38:15.404Z,48.27
2023-10-27T06:40:42.584Z,49.23
2023-10-27T06:43:09.639Z,47.31
2023-10-27T06:45:36.726Z,46.54
2023-10-27T06:48:05.843Z,50.27
2023-10-27T06:50:33.051Z,50.10
2023-10-27T06:53:03.237Z,47.58
2023-10-27T06:55:31.131Z,47.01
2023-10-27T06:57:58.463Z,47.02
2023-10-27T07:00:25.499Z,48.83
2023-10-27T07:02:57.296Z,48.80
2023-10-27T07:05:26.688Z,48.61
2023-10-27T07:07:54.217Z,48.65
2023-10-27T07:10:21.518Z,49.77
2023-10-27T07:12:48.603Z,47.96
2023-10-27T07:15:15.835Z,47.18
2023-10-27T07:17:43.018Z,48.73
2023-10-27T07:20:11.413Z,48.61
2023-10-27T07:22:40.087Z,48.38
2023-10-27T07:25:07.969Z,48.08
2023-10-27T07:27:35.432Z,49.07
2023-10-27T07:30:02.674Z,50.29
2023-10-27T07:32:29.932Z,47.91
2023-10-27T07:34:57.195Z,49.67
2023-10-27T07:37:24.311Z,49.01
2023-10-27T07:39:52.824Z,49.19
2023-10-27T07:42:19.947Z,49.70
2023-10-27T07:44:47.457Z,48.04
2023-10-27T07:47:15.029Z,47.50
2023-10-27T07:49:42.138Z,50.34
2023-10-27T07:52:09.232Z,48.49
2023-10-27T07:54:36.432Z,49.69
2023-10-27T07:57:05.406Z,49.03
2023-10-27T07:59:32.584Z,49.87
2023-10-27T08:02:01.277Z,49.45
2023-10-27T08:04:28.949Z,48.62
2023-10-27T08:06:56.071Z,50.16
2023-10-27T08:09:23.261Z,47.58
2023-10-27T08:11:51.161Z,47.89
2023-10-27T08:14:19.634Z,47.40
2023-10-27T08:16:46.867Z,48.07
2023-10-27T08:19:14.861Z,47.91
2023-10-27T08:21:42.540Z,47.91
2023-10-27T08:24:10.191Z,48.35
2023-10-27T08:26:37.342Z,49.01
2023-10-27T08:29:05.617Z,49.06
2023-10-27T08:31:34.147Z,48.91
2023-10-27T08:34:01.183Z,48.81
2023-10-27T08:36:28.582Z,48.64
2023-10-27T08:38:56.368Z,48.97
2023-10-27T08:41:25.443Z,48.37
2023-10-27T08:43:54.013Z,48.57
2023-10-27T08:46:21.446Z,50.54
2023-10-27T08:48:50.087Z,50.22
2023-10-27T08:51:19.081Z,50.96
2023-10-27T08:53:46.409Z,50.86
2023-10-27T08:56:14.391Z,50.12
2023-10-27T08:58:47.487Z,50.10
2023-10-27T09:01:14.965Z,49.75
2023-10-27T09:03:42.180Z,49.21
2023-10-27T09:06:10.698Z,48.88
2023-10-27T09:08:37.832Z,48.76
2023-10-27T09:11:05.147Z,48.81
2023-10-27T09:13:39.323Z,48.46
2023-10-27T09:16:06.574Z,50.24
2023-10-27T09:18:37.478Z,49.41
2023-10-27T09:21:05.571Z,49.10
2023-10-27T09:23:45.195Z,48.20
2023-10-27T09:26:12.259Z,49.45
2023-10-27T09:28:39.503Z,49.69
2023-10-27T09:31:06.763Z,50.13
2023-10-27T09:33:34.048Z,50.61
2023-10-27T09:36:01.285Z,50.12
2023-10-27T09:38:28.321Z,50.09
2023-10-27T09:41:01.815Z,49.64
2023-10-27T09:43:35.189Z,49.10
2023-10-27T09:46:07.280Z,49.04
2023-10-27T09:48:38.448Z,49.71
2023-10-27T09:51:11.982Z,48.83
2023-10-27T09:53:40.742Z,48.58
2023-10-27T09:56:10.532Z,49.45
2023-10-27T09:58:38.938Z,50.08
2023-10-27T10:01:07.067Z,49.47
2023-10-27T10:03:34.332Z,49.78
2023-10-27T10:06:12.960Z,50.42
2023-10-27T10:08:42.064Z,50.77
2023-10-27T10:11:15.918Z,49.67
2023-10-27T10:13:43.250Z,50.25
2023-10-27T10:16:11.382Z,44.14
2023-10-27T10:18:54.809Z,45.85
2023-10-27T10:21:32.269Z,43.99
2023-10-27T10:24:17.172Z,45.50
2023-10-27T10:27:08.502Z,45.33
2023-10-27T10:29:36.692Z,47.38
2023-10-27T10:32:37.696Z,47.60
2023-10-27T10:35:28.714Z,47.07
2023-10-27T10:37:55.871Z,46.15
2023-10-27T10:40:25.764Z,46.58
2023-10-27T10:43:19.053Z,49.24
2023-10-27T10:45:46.882Z,46.70
2023-10-27T10:48:14.319Z,44.24
2023-10-27T10:50:41.429Z,45.73
2023-10-27T10:53:15.386Z,44.18
2023-10-27T10:55:42.500Z,45.72
2023-10-27T10:58:09.785Z,48.27
2023-10-27T11:00:38.481Z,46.74
2023-10-27T11:03:10.480Z,41.55
2023-10-27T11:05:38.142Z,40.14
2023-10-27T11:08:06.127Z,41.49
2023-10-27T11:10:33.587Z,40.85
2023-10-27T11:13:05.214Z,41.88
2023-10-27T11:15:46.043Z,42.89
2023-10-27T11:18:14.352Z,44.31
2023-10-27T11:20:43.009Z,44.75
2023-10-27T11:23:11.026Z,45.90
2023-10-27T11:25:39.708Z,46.55
2023-10-27T11:28:23.321Z,47.89
2023-10-27T11:31:03.526Z,48.41
2023-10-27T11:33:31.189Z,48.64
2023-10-27T11:35:59.396Z,48.54
2023-10-27T11:38:35.314Z,47.62
2023-10-27T11:41:13.667Z,48.02
2023-10-27T11:43:41.671Z,47.85
2023-10-27T11:46:15.730Z,46.59
2023-10-27T11:48:44.004Z,46.73
2023-10-27T11:51:13.003Z,46.67
2023-10-27T11:53:45.146Z,46.74
2023-10-27T11:56:12.952Z,45.99
2023-10-27T11:58:40.553Z,45.98
2023-10-27T12:01:07.861Z,46.04
2023-10-27T12:03:36.644Z,45.66
2023-10-27T12:06:04.396Z,47.13
2023-10-27T12:08:31.830Z,47.31
2023-10-27T12:10:58.948Z,45.70
2023-10-27T12:13:26.078Z,45.78
2023-10-27T12:15:53.232Z,46.97
2023-10-27T12:18:20.284Z,46.18
2023-10-27T12:20:48.908Z,45.01
2023-10-27T12:23:16.018Z,47.32
2023-10-27T12:25:43.598Z,47.42
2023-10-27T12:28:10.939Z,47.26
2023-10-27T12:30:38.156Z,46.99
2023-10-27T12:33:05.651Z,46.15
2023-10-27T12:35:32.983Z,48.13
2023-10-27T12:38:01.531Z,48.90
2023-10-27T12:40:28.674Z,48.87
2023-10-27T12:42:55.788Z,47.97
2023-10-27T12:45:22.887Z,47.79
2023-10-27T12:47:50.794Z,46.91
2023-10-27T12:50:18.237Z,47.31
2023-10-27T12:52:45.501Z,47.54
2023-10-27T12:55:14.182Z,47.20
2023-10-27T12:57:41.786Z,46.10
2023-10-27T13:00:09.907Z,47.81
2023-10-27T13:02:37.024Z,46.86
2023-10-27T13:05:04.358Z,46.28
2023-10-27T13:07:31.594Z,46.78
2023-10-27T13:09:58.845Z,50.27
2023-10-27T13:12:27.734Z,46.48
2023-10-27T13:14:54.944Z,46.94
2023-10-27T13:17:22.146Z,45.90
2023-10-27T13:19:49.282Z,46.23
2023-10-27T13:22:16.431Z,46.45
2023-10-27T13:24:43.778Z,45.92
2023-10-27T13:27:12.268Z,46.73
2023-10-27T13:29:41.426Z,47.18
2023-10-27T13:32:08.728Z,54.50
2023-10-27T13:34:36.103Z,51.17
2023-10-27T13:37:03.304Z,45.94
2023-10-27T13:39:31.628Z,45.63
2023-10-27T13:41:58.751Z,45.87
2023-10-27T13:44:26.994Z,46.53
2023-10-27T13:46:56.524Z,45.43
2023-10-27T13:49:23.689Z,45.01
2023-10-27T13:51:51.048Z,45.50
2023-10-27T13:54:18.285Z,44.96
2023-10-27T13:56:45.386Z,45.63
2023-10-27T13:59:12.662Z,46.16
2023-10-27T14:01:39.829Z,47.03
2023-10-27T14:04:08.664Z,46.92
2023-10-27T14:06:36.299Z,46.72
2023-10-27T14:09:03.643Z,46.77
2023-10-27T14:11:30.804Z,46.64
2023-10-27T14:13:57.883Z,45.60
2023-10-27T14:16:24.966Z,45.10
2023-10-27T14:18:52.101Z,45.92
2023-10-27T14:21:20.643Z,45.90
2023-10-27T14:23:47.870Z,46.09
2023-10-27T14:26:15.063Z,46.54
2023-10-27T14:28:42.288Z,46.08
2023-10-27T14:31:09.830Z,47.18
2023-10-27T14:33:37.063Z,45.43
2023-10-27T14:36:05.651Z,46.29
2023-10-27T14:38:35.019Z,48.45
2023-10-27T14:41:02.175Z,45.36
2023-10-27T14:43:29.427Z,46.49
2023-10-27T14:46:00.627Z,45.30
2023-10-27T14:48:28.597Z,44.73
2023-10-27T14:51:00.225Z,45.25
2023-10-27T14:53:28.027Z,45.66
2023-10-27T14:56:01.405Z,43.90
2023-10-27T14:58:29.314Z,45.08
2023-10-27T15:01:01.985Z,43.72
2023-10-27T15:03:29.291Z,45.53
2023-10-27T15:05:56.502Z,45.53
2023-10-27T15:08:23.778Z,44.29
2023-10-27T15:10:51.065Z,44.75
2023-10-27T15:13:19.864Z,43.86
2023-10-27T15:15:48.069Z,45.12
2023-10-27T15:18:15.184Z,44.65
2023-10-27T15:20:42.249Z,45.12
2023-10-27T15:23:09.588Z,44.20
2023-10-27T15:25:37.218Z,43.61
2023-10-27T15:28:04.605Z,44.07
2023-10-27T15:30:33.269Z,44.37
2023-10-27T15:33:00.433Z,42.75
2023-10-27T15:35:27.624Z,43.44
2023-10-27T15:37:54.839Z,44.25
2023-10-27T15:40:22.203Z,44.19
2023-10-27T15:42:49.331Z,43.70
2023-10-27T15:45:16.993Z,44.36
2023-10-27T15:47:45.661Z,42.88
2023-10-27T15:50:12.760Z,43.61
2023-10-27T15:52:39.982Z,42.59
2023-10-27T15:55:07.489Z,43.24
2023-10-27T15:57:34.941Z,43.31
2023-10-27T16:00:02.139Z,43.93
2023-10-27T16:02:29.248Z,43.74
2023-10-27T16:05:00.572Z,44.28
2023-10-27T16:07:29.655Z,43.73
2023-10-27T16:09:56.872Z,41.98
2023-10-27T16:12:24.035Z,43.10
2023-10-27T16:14:51.159Z,42.21
2023-10-27T16:17:18.252Z,42.47
2023-10-27T16:19:45.943Z,41.78
2023-10-27T16:22:14.971Z,42.51
2023-10-27T16:24:42.005Z,42.48
2023-10-27T16:27:09.228Z,41.48
2023-10-27T16:29:36.294Z,41.98
2023-10-27T16:32:03.651Z,41.68
2023-10-27T16:34:30.870Z,41.45
2023-10-27T16:36:57.973Z,42.93
2023-10-27T16:39:26.624Z,43.21
2023-10-27T16:41:53.825Z,42.58
2023-10-27T16:44:20.912Z,42.25
2023-10-27T16:46:48.231Z,42.29
2023-10-27T16:49:15.365Z,42.18
2023-10-27T16:51:42.524Z,41.88
2023-10-27T16:54:09.619Z,43.85
2023-10-27T16:56:38.108Z,43.46
2023-10-27T16:59:05.524Z,43.52
2023-10-27T17:01:32.636Z,43.50
2023-10-27T17:03:59.812Z,44.26
2023-10-27T17:06:27.153Z,44.16
2023-10-27T17:08:54.593Z,44.29
2023-10-27T17:11:21.726Z,43.08
2023-10-27T17:13:50.329Z,43.14
2023-10-27T17:16:17.871Z,43.51
2023-10-27T17:18:45.464Z,43.83
2023-10-27T17:21:13.713Z,44.61
2023-10-27T17:23:41.612Z,44.38
2023-10-27T17:26:08.748Z,43.58
2023-10-27T17:28:36.510Z,44.23
2023-10-27T17:31:05.548Z,44.87
2023-10-27T17:33:32.863Z,44.04
2023-10-27T17:36:04.309Z,56.95
2023-10-27T17:38:33.112Z,54.18
2023-10-27T17:41:00.977Z,52.76
2023-10-27T17:43:28.359Z,50.83
2023-10-27T17:45:55.523Z,49.38
2023-10-27T17:48:24.208Z,41.99
2023-10-27T17:50:57.679Z,43.06
2023-10-27T17:53:24.800Z,43.29
2023-10-27T17:55:52.810Z,45.43
2023-10-27T17:58:20.002Z,45.89
2023-10-27T18:00:48.597Z,46.99
2023-10-27T18:03:16.849Z,46.75
2023-10-27T18:05:46.323Z,47.74
2023-10-27T18:08:13.525Z,47.81
2023-10-27T18:10:41.981Z,47.71
2023-10-27T18:13:09.154Z,48.49
2023-10-27T18:15:36.736Z,48.45
2023-10-27T18:18:04.128Z,48.31
2023-10-27T18:20:31.393Z,49.26
2023-10-27T18:23:00.060Z,48.69
2023-10-27T18:25:30.181Z,49.20
2023-10-27T18:27:57.349Z,48.60
2023-10-27T18:30:24.631Z,49.13
2023-10-27T18:32:54.612Z,49.16
2023-10-27T18:35:21.891Z,49.27
2023-10-27T18:37:49.145Z,49.79
2023-10-27T18:40:18.048Z,49.86
2023-10-27T18:42:45.148Z,50.24
2023-10-27T18:45:12.318Z,50.46
2023-10-27T18:47:39.430Z,50.15
2023-10-27T18:50:10.128Z,50.14
2023-10-27T18:52:59.409Z,50.15
2023-10-27T18:55:28.160Z,50.33
2023-10-27T18:57:56.787Z,50.56
2023-10-27T19:00:27.142Z,50.71
2023-10-27T19:02:54.939Z,51.47
2023-10-27T19:05:22.170Z,51.24
2023-10-27T19:07:49.459Z,51.08
2023-10-27T19:10:16.661Z,51.16
2023-10-27T19:12:45.357Z,51.71
2023-10-27T19:15:22.289Z,52.69
2023-10-27T19:17:52.853Z,51.29
2023-10-27T19:20:20.241Z,50.51
2023-10-27T19:22:47.498Z,52.61
2023-10-27T19:25:14.776Z,50.48
2023-10-27T19:27:41.939Z,50.26
2023-10-27T19:30:11.462Z,49.41
2023-10-27T19:32:38.917Z,48.72
2023-10-27T19:35:07.203Z,49.12
2023-10-27T19:37:34.358Z,49.80
2023-10-27T19:40:01.826Z,49.50
2023-10-27T19:42:28.945Z,49.73
2023-10-27T19:45:00.770Z,50.10
2023-10-27T19:47:31.970Z,50.63
2023-10-27T19:49:59.158Z,50.96
2023-10-27T19:52:28.401Z,51.10
2023-10-27T19:54:56.591Z,51.46
2023-10-27T19:57:24.109Z,51.03
2023-10-27T19:59:51.380Z,51.02
2023-10-27T20:02:19.421Z,50.54
2023-10-27T20:04:50.454Z,49.22
2023-10-27T20:07:19.958Z,50.00
2023-10-27T20:09:47.198Z,50.16
2023-10-27T20:12:14.595Z,50.25
2023-10-27T20:14:43.924Z,49.81
2023-10-27T20:17:16.878Z,50.26
2023-10-27T20:19:44.233Z,50.87
2023-10-27T20:22:16.849Z,50.16
2023-10-27T20:24:50.575Z,49.98
2023-10-27T20:27:28.861Z,49.56
2023-10-27T20:29:56.642Z,50.06
2023-10-27T20:32:23.898Z,49.79
2023-10-27T20:34:51.720Z,50.48
2023-10-27T20:37:20.991Z,49.96
2023-10-27T20:39:48.259Z,49.44
2023-10-27T20:42:15.320Z,50.11
2023-10-27T20:44:42.417Z,50.94
2023-10-27T20:47:09.519Z,49.97
2023-10-27T20:49:36.612Z,50.14
2023-10-27T20:52:04.278Z,49.93
2023-10-27T20:54:32.818Z,49.69
2023-10-27T20:56:59.898Z,49.34
2023-10-27T20:59:26.983Z,48.56
2023-10-27T21:01:54.208Z,49.16
2023-10-27T21:04:21.476Z,49.73
2023-10-27T21:06:48.555Z,48.64
2023-10-27T21:09:15.678Z,48.57
2023-10-27T21:11:44.175Z,49.12
2023-10-27T21:14:11.297Z,48.63
2023-10-27T21:16:38.449Z,48.45
2023-10-27T21:19:05.580Z,48.36
2023-10-27T21:21:32.747Z,47.90
2023-10-27T21:23:59.880Z,48.48
2023-10-27T21:26:26.947Z,47.67
2023-10-27T21:28:55.555Z,49.17
2023-10-27T21:31:22.801Z,49.34
2023-10-27T21:33:50.047Z,48.49
2023-10-27T21:36:17.184Z,48.48
2023-10-27T21:38:44.350Z,48.55
2023-10-27T21:41:11.483Z,48.12
2023-10-27T21:43:38.577Z,48.34
2023-10-27T21:46:07.401Z,48.62
2023-10-27T21:48:34.480Z,47.38
2023-10-27T21:51:02.472Z,47.29
2023-10-27T21:53:29.580Z,47.67
2023-10-27T21:55:56.685Z,48.18
2023-10-27T21:58:23.880Z,47.59
2023-10-27T22:00:51.195Z,47.46
2023-10-27T22:03:20.647Z,46.49
2023-10-27T22:05:48.257Z,47.50
2023-10-27T22:08:15.737Z,47.50
2023-10-27T22:10:43.372Z,46.42
2023-10-27T22:13:10.607Z,45.58
2023-10-27T22:15:37.815Z,47.34
2023-10-27T22:18:05.534Z,46.26
2023-10-27T22:20:34.322Z,46.11
2023-10-27T22:23:02.523Z,46.11
2023-10-27T22:25:30.797Z,46.43
2023-10-27T22:28:09.574Z,45.73
2023-10-27T22:30:41.200Z,47.00
2023-10-27T22:33:08.454Z,47.09
2023-10-27T22:35:37.269Z,46.59
2023-10-27T22:38:05.363Z,46.17
2023-10-27T22:40:32.470Z,46.36
2023-10-27T22:42:59.770Z,47.06
2023-10-27T22:45:26.998Z,46.11
2023-10-27T22:47:54.121Z,45.95
2023-10-27T22:50:22.437Z,45.96
2023-10-27T22:52:52.216Z,45.96
2023-10-27T22:55:19.339Z,47.29
2023-10-27T22:57:46.540Z,48.78
2023-10-27T23:00:15.461Z,48.90
2023-10-27T23:02:42.947Z,48.82
2023-10-27T23:05:10.264Z,48.90
2023-10-27T23:07:37.475Z,48.12
2023-10-27T23:10:07.209Z,48.63
2023-10-27T23:12:34.358Z,48.61
2023-10-27T23:15:01.539Z,48.91
2023-10-27T23:17:28.745Z,48.60
2023-10-27T23:19:55.914Z,48.10
2023-10-27T23:22:23.169Z,48.96
2023-10-27T23:24:50.278Z,48.47
2023-10-27T23:27:18.778Z,48.48
2023-10-27T23:29:46.044Z,47.82
2023-10-27T23:32:13.298Z,48.53
2023-10-27T23:34:40.448Z,48.46
2023-10-27T23:37:07.572Z,48.17
2023-10-27T23:39:34.702Z,47.80
2023-10-27T23:42:01.763Z,48.25
2023-10-27T23:44:30.379Z,47.59
2023-10-27T23:46:57.690Z,48.13
2023-10-27T23:49:24.888Z,47.65
2023-10-27T23:51:51.982Z,47.60
2023-10-27T23:54:19.221Z,47.94
2023-10-27T23:56:46.329Z,47.49
2023-10-27T23:59:13.509Z,47.01
